createdAt,value
2019-02-11T04:46:37.111Z,64.69
2019-02-11T04:49:08.137Z,65.16
2019-02-11T04:51:38.587Z,65.48
2019-02-11T04:54:08.987Z,67.93
2019-02-11T04:56:39.374Z,70.14
2019-02-11T04:59:10.161Z,75.32
2019-02-11T05:01:40.691Z,74.97
2019-02-11T05:04:11.222Z,75.67
2019-02-11T05:06:41.659Z,73.77
2019-02-11T05:09:12.073Z,73.49
2019-02-11T05:11:42.516Z,71.08
2019-02-11T05:14:12.957Z,70.84
2019-02-11T05:16:43.456Z,70.41
2019-02-11T05:19:13.887Z,70.31
2019-02-11T05:21:44.329Z,70.55
2019-02-11T05:24:14.740Z,70.47
2019-02-11T05:26:45.229Z,69.77
2019-02-11T05:29:15.630Z,68.86
2019-02-11T05:31:46.032Z,68.57
2019-02-11T05:34:16.468Z,68.59
2019-02-11T05:36:46.917Z,68.17
2019-02-11T05:39:17.421Z,67.20
2019-02-11T05:41:47.842Z,66.51
2019-02-11T05:44:18.237Z,66.11
2019-02-11T05:46:48.641Z,65.55
2019-02-11T05:49:19.129Z,65.12
2019-02-11T05:51:49.564Z,64.94
2019-02-11T05:54:19.950Z,65.15
2019-02-11T05:56:50.415Z,64.52
2019-02-11T05:59:20.791Z,64.47
2019-02-11T06:01:51.177Z,64.44
2019-02-11T06:04:21.598Z,64.34
2019-02-11T06:06:52.031Z,63.97
2019-02-11T06:09:23.255Z,63.64
2019-02-11T06:11:53.903Z,63.78
2019-02-11T06:14:24.451Z,64.17
2019-02-11T06:16:54.825Z,64.90
2019-02-11T06:19:25.297Z,65.51
2019-02-11T06:21:55.718Z,66.35
2019-02-11T06:24:26.151Z,66.85
2019-02-11T06:26:56.685Z,67.88
2019-02-11T06:29:27.115Z,68.39
2019-02-11T06:31:57.496Z,69.79
2019-02-11T06:34:28.373Z,71.07
2019-02-11T06:36:58.851Z,73.52
2019-02-11T06:39:29.337Z,73.86
2019-02-11T06:41:59.770Z,70.68
2019-02-11T06:44:30.189Z,73.67
2019-02-11T06:47:01.640Z,71.62
2019-02-11T06:49:32.072Z,71.53
2019-02-11T06:52:03.620Z,81.51
2019-02-11T06:54:34.054Z,82.82
2019-02-11T06:57:04.991Z,82.66
2019-02-11T06:59:35.422Z,82.83
2019-02-11T07:02:05.811Z,82.83
2019-02-11T07:04:36.275Z,80.79
2019-02-11T07:07:06.706Z,72.10
2019-02-11T07:09:37.138Z,71.24
2019-02-11T07:12:07.767Z,70.84
2019-02-11T07:14:38.200Z,70.20
2019-02-11T07:17:08.621Z,69.69
2019-02-11T07:19:39.051Z,69.46
2019-02-11T07:22:09.484Z,69.98
2019-02-11T07:24:39.902Z,70.93
2019-02-11T07:27:10.431Z,70.35
2019-02-11T07:29:40.875Z,71.17
2019-02-11T07:32:11.329Z,71.79
2019-02-11T07:34:41.828Z,71.70
2019-02-11T07:37:12.249Z,72.40
2019-02-11T07:39:42.679Z,72.85
2019-02-11T07:42:20.484Z,73.23
2019-02-11T07:44:52.512Z,72.75
2019-02-11T07:47:23.084Z,72.19
2019-02-11T07:49:53.615Z,71.17
2019-02-11T07:52:26.969Z,71.74
2019-02-11T07:54:56.212Z,74.65
2019-02-11T07:57:26.740Z,80.40
2019-02-11T07:59:57.429Z,80.26
2019-02-11T08:02:27.932Z,77.24
2019-02-11T08:04:58.434Z,78.06
2019-02-11T08:07:28.965Z,78.61
2019-02-11T08:09:59.393Z,78.95
2019-02-11T08:12:29.813Z,78.71
2019-02-11T08:15:00.340Z,80.52
2019-02-11T08:17:30.772Z,80.25
2019-02-11T08:20:01.314Z,80.08
2019-02-11T08:22:31.736Z,80.81
2019-02-11T08:25:02.124Z,79.69
2019-02-11T08:27:32.688Z,79.67
2019-02-11T08:30:04.074Z,81.30
2019-02-11T08:32:34.569Z,79.39
2019-02-11T08:35:06.189Z,78.12
2019-02-11T08:37:36.622Z,79.42
2019-02-11T08:40:08.938Z,80.04
2019-02-11T08:42:39.363Z,80.31
2019-02-11T08:45:10.737Z,80.00
2019-02-11T08:47:41.137Z,79.79
2019-02-11T08:50:11.564Z,79.57
2019-02-11T08:52:42.095Z,78.74
2019-02-11T08:55:12.628Z,79.17
2019-02-11T08:57:43.048Z,78.98
2019-02-11T09:00:13.999Z,79.33
2019-02-11T09:02:44.658Z,79.16
2019-02-11T09:05:15.106Z,79.85
2019-02-11T09:07:45.684Z,78.30
2019-02-11T09:10:16.123Z,78.53
2019-02-11T09:12:46.504Z,78.05
2019-02-11T09:15:16.967Z,78.07
2019-02-11T09:17:47.469Z,77.58
2019-02-11T09:20:17.852Z,77.59
2019-02-11T09:22:48.992Z,76.47
2019-02-11T09:25:19.423Z,76.92
2019-02-11T09:27:49.855Z,75.87
2019-02-11T09:30:20.287Z,74.93
2019-02-11T09:32:50.816Z,74.16
2019-02-11T09:35:21.199Z,74.15
2019-02-11T09:37:51.670Z,75.10
2019-02-11T09:40:22.049Z,74.97
2019-02-11T09:42:52.524Z,73.81
2019-02-11T09:45:25.206Z,73.16
2019-02-11T09:47:55.583Z,73.31
2019-02-11T09:50:29.337Z,73.64
2019-02-11T09:52:59.771Z,73.61
2019-02-11T09:55:32.562Z,73.25
2019-02-11T09:58:03.314Z,71.81
2019-02-11T10:00:33.698Z,71.77
2019-02-11T10:03:04.169Z,71.23
2019-02-11T10:05:34.645Z,70.31
2019-02-11T10:08:05.102Z,69.63
2019-02-11T10:10:35.520Z,69.47
2019-02-11T10:13:06.075Z,69.54
2019-02-11T10:15:36.452Z,69.36
2019-02-11T10:18:06.837Z,68.51
2019-02-11T10:20:37.356Z,67.81
2019-02-11T10:23:10.649Z,66.55
2019-02-11T10:25:41.177Z,65.62
2019-02-11T10:28:12.386Z,67.04
2019-02-11T10:30:42.851Z,66.21
2019-02-11T10:33:13.229Z,66.37
2019-02-11T10:35:44.011Z,66.02
2019-02-11T10:38:15.916Z,65.73
2019-02-11T10:40:46.297Z,66.18
2019-02-11T10:43:16.730Z,64.82
2019-02-11T10:45:47.153Z,64.60
2019-02-11T10:48:18.504Z,64.34
2019-02-11T10:50:48.943Z,64.29
2019-02-11T10:53:19.359Z,64.05
2019-02-11T10:55:49.790Z,63.07
2019-02-11T10:58:20.222Z,63.09
2019-02-11T11:00:50.752Z,63.06
2019-02-11T11:03:21.172Z,62.86
2019-02-11T11:05:51.709Z,62.64
2019-02-11T11:08:22.135Z,62.80
2019-02-11T11:10:52.523Z,63.44
2019-02-11T11:13:22.987Z,62.77
2019-02-11T11:15:53.421Z,63.47
2019-02-11T11:18:24.971Z,64.58
2019-02-11T11:20:55.400Z,63.60
2019-02-11T11:23:28.370Z,63.28
2019-02-11T11:25:58.848Z,63.59
2019-02-11T11:28:30.474Z,63.55
2019-02-11T11:31:01.000Z,63.60
2019-02-11T11:33:31.434Z,63.92
2019-02-11T11:36:01.822Z,63.30
2019-02-11T11:38:32.285Z,64.54
2019-02-11T11:41:02.816Z,64.46
2019-02-11T11:43:33.249Z,63.85
2019-02-11T11:46:03.682Z,63.40
2019-02-11T11:48:34.127Z,63.96
2019-02-11T11:51:04.630Z,62.63
2019-02-11T11:53:35.061Z,62.88
2019-02-11T11:56:05.597Z,62.50
2019-02-11T11:58:36.030Z,61.87
2019-02-11T12:01:07.182Z,61.56
2019-02-11T12:03:37.591Z,61.82
2019-02-11T12:06:08.058Z,62.06
2019-02-11T12:08:38.558Z,63.00
2019-02-11T12:11:08.948Z,61.35
2019-02-11T12:13:39.414Z,61.18
2019-02-11T12:16:09.846Z,60.82
2019-02-11T12:18:40.279Z,60.85
2019-02-11T12:21:10.658Z,60.66
2019-02-11T12:23:41.131Z,60.70
2019-02-11T12:26:11.577Z,61.27
2019-02-11T12:28:41.985Z,61.43
2019-02-11T12:31:12.472Z,61.40
2019-02-11T12:33:43.371Z,60.90
2019-02-11T12:36:14.878Z,61.53
2019-02-11T12:38:45.263Z,61.19
2019-02-11T12:41:15.662Z,61.98
2019-02-11T12:43:46.084Z,61.83
2019-02-11T12:46:16.525Z,62.21
2019-02-11T12:48:47.046Z,61.68
2019-02-11T12:51:17.483Z,69.11
2019-02-11T12:53:48.015Z,67.56
2019-02-11T12:56:21.005Z,67.69
